Time;durP1;ratioP1;P1;durP2;ratioP2;P2;SDS_P1;SDS_P2;PMS_P1;PMS_P2;Temp;Humidity;BMP_temperature;BMP_pressure;BME280_temperature;BME280_humidity;BME280_pressure;Samples;Min_cycle;Max_cycle;Signal;HPM_P1;HPM_P2
2022/07/25 00:00:16;;;;;;;7.82;6.20;;;23.40;63.60;;;;;;5014263;28;20470;-79
2022/07/25 00:02:42;;;;;;;7.22;6.50;;;23.30;64.30;;;;;;4984514;28;20460;-79
2022/07/25 00:05:08;;;;;;;9.55;6.63;;;23.20;63.60;;;;;;4999002;28;20036;-79
2022/07/25 00:07:33;;;;;;;6.63;6.03;;;23.10;63.70;;;;;;4984852;28;20155;-79
2022/07/25 00:09:59;;;;;;;6.88;6.18;;;23.20;63.30;;;;;;4994766;28;20026;-81
2022/07/25 00:12:24;;;;;;;6.18;5.65;;;23.20;63.80;;;;;;4977279;28;20515;-78
2022/07/25 00:14:50;;;;;;;6.65;5.57;;;23.30;63.30;;;;;;5003582;28;20494;-79
2022/07/25 00:17:16;;;;;;;5.78;5.28;;;23.50;62.80;;;;;;4964098;28;20030;-78
2022/07/25 00:19:41;;;;;;;7.45;6.15;;;23.40;62.70;;;;;;5000556;28;20505;-79
2022/07/25 00:22:07;;;;;;;6.95;6.35;;;23.40;63.20;;;;;;4988497;28;20520;-79
2022/07/25 00:24:32;;;;;;;6.72;5.78;;;23.40;63.00;;;;;;5000756;28;20405;-78
2022/07/25 00:26:58;;;;;;;6.70;6.03;;;23.20;63.20;;;;;;4993916;28;20408;-79
2022/07/25 00:29:23;;;;;;;7.03;6.18;;;23.20;62.70;;;;;;4996942;28;20438;-78
2022/07/25 00:31:49;;;;;;;8.45;6.38;;;23.20;62.30;;;;;;5021394;28;20026;-79
2022/07/25 00:34:14;;;;;;;9.65;6.50;;;23.10;63.90;;;;;;4996794;28;20042;-78
2022/07/25 00:36:40;;;;;;;7.90;6.18;;;23.00;62.70;;;;;;4974873;28;20097;-78
2022/07/25 00:39:06;;;;;;;8.73;6.68;;;22.90;63.60;;;;;;4992615;28;20393;-78
2022/07/25 00:41:31;;;;;;;7.15;6.45;;;22.90;64.00;;;;;;4978855;28;20097;-79
2022/07/25 00:43:57;;;;;;;8.43;7.18;;;22.90;63.10;;;;;;4994953;28;20033;-79
2022/07/25 00:46:22;;;;;;;8.70;6.88;;;22.90;63.80;;;;;;4991110;28;20034;-79
2022/07/25 00:48:48;;;;;;;7.60;6.80;;;22.80;63.10;;;;;;4984688;28;20129;-78
2022/07/25 00:51:14;;;;;;;7.75;7.05;;;22.80;62.60;;;;;;5001917;28;20653;-79
2022/07/25 00:53:39;;;;;;;10.55;6.63;;;22.70;64.20;;;;;;4977932;28;20061;-79
2022/07/25 00:56:05;;;;;;;6.95;6.25;;;22.60;62.80;;;;;;4988365;28;20550;-79
2022/07/25 00:58:31;;;;;;;6.95;6.15;;;22.60;63.10;;;;;;5007160;28;20441;-78
2022/07/25 01:00:56;;;;;;;9.98;6.40;;;22.70;63.00;;;;;;4983502;28;20050;-78
2022/07/25 01:03:22;;;;;;;9.07;6.40;;;22.60;62.90;;;;;;4983226;28;20091;-79
2022/07/25 01:05:49;;;;;;;8.25;6.22;;;22.60;63.20;;;;;;4965066;28;20041;-79
2022/07/25 01:08:18;;;;;;;7.25;5.90;;;22.50;63.30;;;;;;4976657;28;20039;-79
2022/07/25 01:10:44;;;;;;;7.70;6.05;;;22.50;63.40;;;;;;4997463;28;20041;-79
2022/07/25 01:13:10;;;;;;;6.95;6.22;;;22.50;63.40;;;;;;4978829;28;20057;-79
2022/07/25 01:15:35;;;;;;;7.20;6.53;;;22.50;63.40;;;;;;5003965;28;20021;-78
2022/07/25 01:18:01;;;;;;;7.00;6.30;;;22.40;63.90;;;;;;4982531;28;20030;-78
2022/07/25 01:20:27;;;;;;;9.13;6.53;;;22.30;64.30;;;;;;4982558;28;20081;-79
2022/07/25 01:22:52;;;;;;;10.07;7.05;;;22.30;64.90;;;;;;4974498;28;20031;-78
2022/07/25 01:25:18;;;;;;;6.80;6.20;;;22.20;64.30;;;;;;4979920;28;20084;-78
2022/07/25 01:27:44;;;;;;;7.28;6.22;;;22.10;64.20;;;;;;4992750;28;20030;-78
2022/07/25 01:30:11;;;;;;;10.02;6.97;;;22.10;64.00;;;;;;5005101;28;20482;-78
2022/07/25 01:32:37;;;;;;;6.88;6.07;;;22.20;63.80;;;;;;4998407;28;20022;-79
2022/07/25 01:35:03;;;;;;;5.68;5.18;;;22.10;63.10;;;;;;5008774;28;20398;-78
2022/07/25 01:37:29;;;;;;;7.65;6.88;;;22.10;63.10;;;;;;4990854;28;20407;-79
2022/07/25 01:39:54;;;;;;;7.85;6.82;;;22.10;64.00;;;;;;4989654;28;20054;-78
2022/07/25 01:42:20;;;;;;;8.52;6.22;;;22.00;64.20;;;;;;4997421;28;20054;-78
2022/07/25 01:44:45;;;;;;;7.72;7.03;;;22.00;64.20;;;;;;4973107;28;20104;-78
2022/07/25 01:47:11;;;;;;;9.05;6.25;;;22.10;65.60;;;;;;4972286;28;20108;-79
2022/07/25 01:49:36;;;;;;;9.38;6.10;;;22.00;64.10;;;;;;4979486;28;20048;-78
2022/07/25 01:52:02;;;;;;;6.20;5.60;;;22.00;63.00;;;;;;4996001;28;20041;-79
2022/07/25 01:54:28;;;;;;;8.85;6.78;;;22.10;63.60;;;;;;4999807;28;20034;-78
2022/07/25 01:56:53;;;;;;;9.35;6.05;;;22.00;64.70;;;;;;4998608;28;20496;-78
2022/07/25 01:59:19;;;;;;;8.82;6.65;;;21.90;65.00;;;;;;4985066;28;20045;-78
2022/07/25 02:01:44;;;;;;;8.25;6.35;;;21.80;66.60;;;;;;4977615;28;20047;-79
2022/07/25 02:04:10;;;;;;;9.57;6.35;;;21.80;66.10;;;;;;4967274;28;20022;-79
2022/07/25 02:06:35;;;;;;;7.45;6.63;;;21.60;65.60;;;;;;4996682;28;20033;-78
2022/07/25 02:09:02;;;;;;;7.28;6.53;;;21.70;64.90;;;;;;4988290;28;20045;-78
2022/07/25 02:11:27;;;;;;;8.70;6.05;;;21.80;64.30;;;;;;5005695;28;20025;-78
2022/07/25 02:13:53;;;;;;;8.80;6.45;;;21.80;64.70;;;;;;4973187;28;20419;-78
2022/07/25 02:16:18;;;;;;;7.20;6.40;;;21.70;65.70;;;;;;4967099;28;20036;-79
2022/07/25 02:18:44;;;;;;;8.88;6.80;;;21.60;67.80;;;;;;4993845;28;20511;-79
2022/07/25 02:21:10;;;;;;;8.00;6.63;;;21.40;67.90;;;;;;5018574;28;20046;-79
2022/07/25 02:23:36;;;;;;;8.10;6.78;;;21.40;66.30;;;;;;4978707;28;20025;-79
2022/07/25 02:26:02;;;;;;;8.77;6.60;;;21.40;66.10;;;;;;4996798;28;20066;-79
2022/07/25 02:28:28;;;;;;;7.20;6.40;;;21.40;65.80;;;;;;5005874;28;20405;-79
2022/07/25 02:30:53;;;;;;;12.48;6.45;;;21.40;66.50;;;;;;5006124;28;20105;-78
2022/07/25 02:33:19;;;;;;;7.47;6.78;;;21.30;66.70;;;;;;4992295;28;20445;-79
2022/07/25 02:35:44;;;;;;;6.32;5.80;;;21.40;66.20;;;;;;5014085;28;20023;-79
2022/07/25 02:38:10;;;;;;;6.40;5.80;;;21.30;66.60;;;;;;4979421;28;20026;-79
2022/07/25 02:40:35;;;;;;;9.68;5.90;;;21.30;66.40;;;;;;5001380;28;20037;-79
2022/07/25 02:43:01;;;;;;;9.80;6.82;;;21.40;66.90;;;;;;4993935;28;20273;-78
2022/07/25 02:45:27;;;;;;;6.65;5.95;;;21.20;67.90;;;;;;4970154;28;20033;-79
2022/07/25 02:47:52;;;;;;;11.52;6.80;;;21.20;66.50;;;;;;4971258;28;20054;-79
2022/07/25 02:50:18;;;;;;;7.05;6.30;;;21.20;68.40;;;;;;4971615;28;20509;-79
2022/07/25 02:52:44;;;;;;;9.93;6.57;;;21.40;66.70;;;;;;4987725;28;20491;-79
2022/07/25 02:55:10;;;;;;;7.40;6.70;;;21.30;66.30;;;;;;4990564;28;20076;-79
2022/07/25 02:57:35;;;;;;;7.47;6.65;;;21.30;66.40;;;;;;4987390;28;20025;-79
2022/07/25 03:00:01;;;;;;;6.88;6.25;;;21.30;66.80;;;;;;4980688;28;20034;-79
2022/07/25 03:02:26;;;;;;;7.57;6.53;;;21.20;67.10;;;;;;5005496;28;20033;-79
2022/07/25 03:04:52;;;;;;;7.30;6.57;;;21.20;68.00;;;;;;4976429;28;20510;-79
2022/07/25 03:07:18;;;;;;;6.80;6.15;;;21.10;67.40;;;;;;4996903;28;20033;-79
2022/07/25 03:09:43;;;;;;;8.48;6.95;;;21.20;67.10;;;;;;5007451;28;20056;-79
2022/07/25 03:12:09;;;;;;;8.07;6.53;;;21.10;68.00;;;;;;4983244;28;20038;-79
2022/07/25 03:14:34;;;;;;;10.07;6.10;;;21.10;67.60;;;;;;4983786;28;20071;-79
2022/07/25 03:17:00;;;;;;;6.68;6.07;;;21.10;68.20;;;;;;5001078;28;20033;-79
2022/07/25 03:19:25;;;;;;;9.80;6.85;;;21.10;67.20;;;;;;4971039;28;20477;-78
2022/07/25 03:21:51;;;;;;;11.38;6.03;;;21.10;67.40;;;;;;4989534;28;20081;-79
2022/07/25 03:24:17;;;;;;;8.13;6.18;;;21.20;68.00;;;;;;5007070;28;20645;-79
2022/07/25 03:26:43;;;;;;;7.60;6.47;;;21.20;66.20;;;;;;4976565;28;20127;-79
2022/07/25 03:29:09;;;;;;;7.57;6.43;;;21.30;67.90;;;;;;4986437;28;20126;-79
2022/07/25 03:31:34;;;;;;;6.93;6.13;;;21.20;66.80;;;;;;4999829;28;20460;-79
2022/07/25 03:34:00;;;;;;;6.20;5.57;;;21.40;66.90;;;;;;4982911;28;20394;-79
2022/07/25 03:36:25;;;;;;;6.82;6.13;;;21.40;66.20;;;;;;5006150;28;20057;-79
2022/07/25 03:38:51;;;;;;;8.57;6.30;;;21.30;67.00;;;;;;4997188;28;20434;-79
2022/07/25 03:41:17;;;;;;;7.32;6.40;;;21.20;67.80;;;;;;4992813;28;20030;-79
2022/07/25 03:43:43;;;;;;;6.88;6.07;;;21.20;68.30;;;;;;5007341;28;20038;-79
2022/07/25 03:46:08;;;;;;;8.15;6.60;;;21.20;67.10;;;;;;5003280;28;20035;-79
2022/07/25 03:48:34;;;;;;;7.20;6.40;;;21.20;67.80;;;;;;5004385;28;20034;-79
2022/07/25 03:50:59;;;;;;;6.97;6.35;;;21.20;67.30;;;;;;5008562;28;20548;-79
2022/07/25 03:53:25;;;;;;;5.95;5.35;;;21.20;67.10;;;;;;4991510;28;20433;-78
2022/07/25 03:55:50;;;;;;;9.32;5.78;;;21.30;66.50;;;;;;4992603;28;20386;-79
2022/07/25 03:58:16;;;;;;;6.47;5.85;;;21.20;66.80;;;;;;5001257;28;20089;-79
2022/07/25 04:00:41;;;;;;;6.85;6.20;;;21.30;67.30;;;;;;4976513;28;20018;-79
2022/07/25 04:03:07;;;;;;;7.80;6.38;;;21.30;67.00;;;;;;4973857;28;20030;-79
2022/07/25 04:05:33;;;;;;;6.78;6.13;;;21.40;66.30;;;;;;4988315;28;20446;-79
2022/07/25 04:07:59;;;;;;;7.68;6.00;;;21.30;67.20;;;;;;5007686;28;20022;-79
2022/07/25 04:10:24;;;;;;;7.38;6.40;;;21.20;67.70;;;;;;4979850;28;20030;-79
2022/07/25 04:12:50;;;;;;;7.10;6.40;;;21.20;66.60;;;;;;5011333;28;20030;-79
2022/07/25 04:15:15;;;;;;;6.57;5.90;;;21.10;68.50;;;;;;4995998;28;20041;-79
2022/07/25 04:17:41;;;;;;;8.10;5.93;;;21.20;66.80;;;;;;5002612;28;20042;-79
2022/07/25 04:20:07;;;;;;;7.40;5.95;;;21.30;67.50;;;;;;4961761;28;20035;-79
2022/07/25 04:22:33;;;;;;;6.85;6.18;;;21.20;67.90;;;;;;4997460;28;20160;-79
2022/07/25 04:24:58;;;;;;;7.38;6.28;;;21.30;68.00;;;;;;4972597;28;20513;-79
2022/07/25 04:27:24;;;;;;;9.82;6.45;;;21.40;68.40;;;;;;4995495;28;20030;-79
2022/07/25 04:29:49;;;;;;;6.63;5.93;;;21.50;66.90;;;;;;4997122;28;20549;-79
2022/07/25 04:32:15;;;;;;;6.25;5.63;;;21.70;66.30;;;;;;4998030;28;20510;-79
2022/07/25 04:34:42;;;;;;;9.50;6.43;;;21.70;65.40;;;;;;4987346;28;20144;-79
2022/07/25 04:37:08;;;;;;;8.68;6.10;;;21.80;66.50;;;;;;4999978;28;20042;-79
2022/07/25 04:39:33;;;;;;;10.45;5.85;;;21.90;67.80;;;;;;4995664;28;20041;-79
2022/07/25 04:41:59;;;;;;;8.73;6.43;;;22.00;67.60;;;;;;4992789;28;20616;-78
2022/07/25 04:44:24;;;;;;;6.43;5.82;;;22.20;67.20;;;;;;5014027;28;20034;-79
2022/07/25 04:46:50;;;;;;;8.00;5.55;;;22.30;64.10;;;;;;4998101;28;20092;-79
2022/07/25 04:49:16;;;;;;;9.00;5.78;;;22.50;63.70;;;;;;4995905;28;20049;-79
2022/07/25 04:51:41;;;;;;;7.32;5.00;;;22.60;66.00;;;;;;5001955;28;20038;-79
2022/07/25 04:54:08;;;;;;;6.32;5.70;;;22.80;63.20;;;;;;4999180;28;20052;-79
2022/07/25 04:56:33;;;;;;;6.53;5.72;;;22.90;62.50;;;;;;5001961;28;20117;-79
2022/07/25 04:58:59;;;;;;;5.35;4.85;;;23.00;62.60;;;;;;4995741;28;20121;-79
2022/07/25 05:01:24;;;;;;;6.47;5.50;;;23.20;62.20;;;;;;5003462;28;20109;-79
2022/07/25 05:03:50;;;;;;;6.93;5.20;;;23.30;62.60;;;;;;4985442;28;20037;-79
2022/07/25 05:06:16;;;;;;;6.10;5.03;;;23.40;62.00;;;;;;5004794;28;20037;-79
2022/07/25 05:08:42;;;;;;;7.88;6.20;;;23.50;61.30;;;;;;4976216;28;20038;-79
2022/07/25 05:11:07;;;;;;;6.78;6.07;;;23.60;61.50;;;;;;4993398;28;20428;-79
2022/07/25 05:13:34;;;;;;;6.13;5.53;;;23.70;61.40;;;;;;4993599;28;20375;-79
2022/07/25 05:15:59;;;;;;;5.60;5.07;;;23.80;60.60;;;;;;4992553;28;20036;-79
2022/07/25 05:18:25;;;;;;;5.97;4.85;;;23.80;60.70;;;;;;4966888;28;20168;-79
2022/07/25 05:20:50;;;;;;;6.25;5.47;;;23.90;60.60;;;;;;4995402;28;20490;-79
2022/07/25 05:23:16;;;;;;;5.68;5.13;;;24.00;60.40;;;;;;5002969;28;20033;-79
2022/07/25 05:25:42;;;;;;;9.10;5.25;;;24.10;60.00;;;;;;4999558;28;20397;-79
2022/07/25 05:28:07;;;;;;;7.80;5.35;;;24.30;60.00;;;;;;5015928;28;20114;-79
2022/07/25 05:30:33;;;;;;;8.32;5.60;;;24.40;60.40;;;;;;5005048;28;20026;-79
2022/07/25 05:32:58;;;;;;;7.07;5.97;;;24.50;59.80;;;;;;4997071;28;20022;-79
2022/07/25 05:35:24;;;;;;;7.75;5.88;;;24.60;60.30;;;;;;5007708;28;20052;-79
2022/07/25 05:37:50;;;;;;;6.68;5.63;;;24.70;61.50;;;;;;4982380;28;20393;-79
2022/07/25 05:40:15;;;;;;;5.88;5.32;;;24.90;59.50;;;;;;5023066;28;20401;-79
2022/07/25 05:42:41;;;;;;;5.43;4.93;;;25.00;62.60;;;;;;4990998;28;20468;-78
2022/07/25 05:45:07;;;;;;;6.78;5.45;;;25.10;59.20;;;;;;5002135;28;20045;-79
2022/07/25 05:47:32;;;;;;;5.85;5.30;;;25.10;59.60;;;;;;4998753;28;20561;-78
2022/07/25 05:49:58;;;;;;;5.10;4.63;;;25.30;59.10;;;;;;4993965;28;20483;-78
2022/07/25 05:52:24;;;;;;;6.05;5.30;;;25.30;58.50;;;;;;5008085;28;20030;-78
2022/07/25 05:54:49;;;;;;;7.10;5.55;;;25.40;58.80;;;;;;5004694;28;20069;-78
2022/07/25 05:57:15;;;;;;;9.65;6.03;;;25.50;58.80;;;;;;4964640;28;20037;-78
2022/07/25 05:59:40;;;;;;;5.75;5.18;;;25.60;59.10;;;;;;5000864;28;20048;-80
2022/07/25 06:02:06;;;;;;;6.28;5.13;;;25.90;59.50;;;;;;4977049;28;20116;-78
2022/07/25 06:04:32;;;;;;;6.50;4.53;;;26.10;59.40;;;;;;5005142;28;20030;-78
2022/07/25 06:06:58;;;;;;;4.63;4.22;;;26.10;58.50;;;;;;4995608;28;20046;-80
2022/07/25 06:09:23;;;;;;;6.45;5.70;;;26.10;58.30;;;;;;5008824;28;20045;-78
2022/07/25 06:11:49;;;;;;;5.65;5.13;;;26.00;58.70;;;;;;4986866;28;20026;-78
2022/07/25 06:14:15;;;;;;;6.25;5.50;;;26.20;58.70;;;;;;4976091;28;20042;-80
2022/07/25 06:16:40;;;;;;;6.22;5.25;;;26.50;62.30;;;;;;5007781;28;20026;-80
2022/07/25 06:19:06;;;;;;;5.65;5.15;;;26.70;59.40;;;;;;5003463;28;20418;-80
2022/07/25 06:21:32;;;;;;;5.78;5.25;;;26.80;59.70;;;;;;4969938;28;20643;-80
2022/07/25 06:23:57;;;;;;;7.35;4.75;;;26.70;61.30;;;;;;4991048;28;20375;-80
2022/07/25 06:26:23;;;;;;;7.53;6.10;;;27.00;62.30;;;;;;4994819;28;20364;-80
2022/07/25 06:28:49;;;;;;;5.57;5.00;;;27.10;61.40;;;;;;5004993;28;20084;-80
2022/07/25 06:31:15;;;;;;;5.40;4.85;;;27.00;59.60;;;;;;4987952;28;20038;-80
2022/07/25 06:33:41;;;;;;;5.72;5.20;;;27.00;59.60;;;;;;4994161;28;20038;-80
2022/07/25 06:36:06;;;;;;;6.30;5.38;;;26.90;58.50;;;;;;4997368;28;20117;-80
2022/07/25 06:38:32;;;;;;;8.88;5.38;;;26.90;58.40;;;;;;4994285;28;20517;-80
2022/07/25 06:40:58;;;;;;;5.63;5.05;;;26.90;58.30;;;;;;5004901;28;20034;-80
2022/07/25 06:43:23;;;;;;;9.00;5.90;;;27.10;60.10;;;;;;4997325;28;20113;-80
2022/07/25 06:45:49;;;;;;;5.47;4.97;;;27.10;60.20;;;;;;4978382;28;20097;-80
2022/07/25 06:48:15;;;;;;;5.50;4.95;;;27.10;58.20;;;;;;4990045;28;22047;-80
2022/07/25 06:50:41;;;;;;;9.70;5.63;;;27.10;58.50;;;;;;4983490;28;20033;-80
2022/07/25 06:53:06;;;;;;;7.25;5.70;;;27.10;59.10;;;;;;4993419;28;20038;-80
2022/07/25 06:55:32;;;;;;;5.45;4.90;;;27.20;57.70;;;;;;4966653;28;20089;-80
2022/07/25 06:57:58;;;;;;;5.85;5.25;;;27.30;58.80;;;;;;4994972;28;20379;-80
2022/07/25 07:00:23;;;;;;;6.18;5.28;;;27.40;57.60;;;;;;4987989;28;20121;-80
2022/07/25 07:02:58;;;;;;;6.35;5.75;;;27.70;57.80;;;;;;4991312;28;20184;-80
2022/07/25 07:05:25;;;;;;;7.88;6.03;;;27.70;56.90;;;;;;5001351;28;20220;-80
2022/07/25 07:07:51;;;;;;;7.10;5.60;;;28.00;57.30;;;;;;4988801;28;20054;-80
2022/07/25 07:10:17;;;;;;;5.82;5.25;;;28.10;57.50;;;;;;5000371;28;20065;-80
2022/07/25 07:12:45;;;;;;;7.53;5.22;;;28.30;56.00;;;;;;4988668;28;20022;-81
2022/07/25 07:15:22;;;;;;;7.45;4.95;;;28.20;55.90;;;;;;4986741;28;20038;-81
2022/07/25 07:17:48;;;;;;;10.38;5.35;;;28.30;55.90;;;;;;4990948;28;20533;-81
2022/07/25 07:20:13;;;;;;;6.03;4.75;;;28.30;55.80;;;;;;4984327;28;20120;-79
2022/07/25 07:22:45;;;;;;;6.68;5.03;;;28.10;55.50;;;;;;4989442;28;20383;-80
2022/07/25 07:25:16;;;;;;;8.57;5.38;;;28.10;55.20;;;;;;4970083;28;20045;-80
2022/07/25 07:27:42;;;;;;;6.53;4.93;;;28.60;55.30;;;;;;4986573;28;20040;-80
2022/07/25 07:30:08;;;;;;;5.55;4.97;;;28.50;54.70;;;;;;4981833;28;20180;-80
2022/07/25 07:32:34;;;;;;;6.47;5.40;;;28.40;54.90;;;;;;4992279;28;20084;-80
2022/07/25 07:34:59;;;;;;;12.50;5.13;;;28.60;54.90;;;;;;4971261;28;20829;-80
2022/07/25 07:37:25;;;;;;;6.15;4.88;;;28.80;54.40;;;;;;4994825;28;20030;-80
2022/07/25 07:39:51;;;;;;;9.38;5.50;;;28.70;54.10;;;;;;4960690;28;20060;-80
2022/07/25 07:42:16;;;;;;;6.15;5.20;;;28.70;54.60;;;;;;4979033;28;20510;-80
2022/07/25 07:44:42;;;;;;;5.70;5.07;;;29.00;54.20;;;;;;4968990;28;20787;-81
2022/07/25 07:47:07;;;;;;;10.05;5.90;;;29.30;54.10;;;;;;4994132;28;20045;-80
2022/07/25 07:49:33;;;;;;;7.35;5.20;;;29.30;54.80;;;;;;4966656;28;20068;-80
2022/07/25 07:51:58;;;;;;;7.10;5.18;;;29.40;53.70;;;;;;5012642;28;20034;-80
2022/07/25 07:57:08;;;;;;;5.88;5.30;;;30.00;53.70;;;;;;5000557;28;20399;-81
2022/07/25 07:59:34;;;;;;;6.10;5.50;;;30.20;53.50;;;;;;4984363;28;20030;-81
2022/07/25 08:01:59;;;;;;;7.32;5.25;;;30.20;53.10;;;;;;4983478;28;20552;-81
2022/07/25 08:04:25;;;;;;;10.52;5.05;;;30.70;52.20;;;;;;5008791;28;20072;-81
2022/07/25 08:06:50;;;;;;;5.70;5.07;;;30.60;51.90;;;;;;5007835;28;20041;-81
2022/07/25 08:09:16;;;;;;;7.20;5.28;;;30.30;51.60;;;;;;5005920;28;20041;-81
2022/07/25 08:11:42;;;;;;;5.82;4.55;;;30.70;52.50;;;;;;5015699;28;20110;-82
2022/07/25 08:14:07;;;;;;;9.10;5.88;;;31.50;52.10;;;;;;5012751;28;20046;-82
2022/07/25 08:16:33;;;;;;;9.40;5.78;;;31.20;50.20;;;;;;4993884;28;20113;-82
2022/07/25 08:18:59;;;;;;;6.28;5.40;;;30.90;51.30;;;;;;4974938;28;20628;-83
2022/07/25 08:21:24;;;;;;;10.25;5.25;;;31.50;52.10;;;;;;4963706;28;20042;-82
2022/07/25 08:23:50;;;;;;;9.25;5.65;;;31.40;50.50;;;;;;4977227;28;20066;-82
2022/07/25 08:26:15;;;;;;;7.78;4.93;;;31.50;51.50;;;;;;4978038;28;20038;-82
2022/07/25 08:28:41;;;;;;;9.27;5.53;;;31.80;51.10;;;;;;5012230;28;20050;-83
2022/07/25 08:31:07;;;;;;;6.50;5.32;;;31.40;50.40;;;;;;5007576;28;20112;-83
2022/07/25 08:33:32;;;;;;;8.85;5.78;;;31.10;51.40;;;;;;4970502;28;20390;-83
2022/07/25 08:35:58;;;;;;;5.90;5.20;;;31.80;51.50;;;;;;4967502;28;20177;-83
2022/07/25 08:38:24;;;;;;;5.85;5.25;;;32.10;51.00;;;;;;5005938;28;20022;-83
2022/07/25 08:40:50;;;;;;;4.00;3.65;;;32.20;50.50;;;;;;4999490;28;20034;-84
2022/07/25 08:43:16;;;;;;;7.72;5.03;;;31.90;50.90;;;;;;4978261;28;20033;-84
2022/07/25 08:45:46;;;;;;;11.68;5.20;;;32.20;49.60;;;;;;4985993;28;20410;-84
2022/07/25 08:48:11;;;;;;;8.65;5.15;;;32.10;50.20;;;;;;4986944;28;20030;-84
2022/07/25 08:50:37;;;;;;;6.85;5.60;;;31.80;50.10;;;;;;4975322;28;20033;-84
2022/07/25 08:53:03;;;;;;;6.78;5.20;;;32.10;51.00;;;;;;4982675;28;20026;-84
2022/07/25 08:55:28;;;;;;;6.60;5.57;;;32.20;49.70;;;;;;5001951;28;20034;-84
2022/07/25 08:57:54;;;;;;;8.38;5.63;;;32.10;50.20;;;;;;4991937;28;20030;-85
2022/07/25 09:00:22;;;;;;;6.10;4.95;;;32.20;50.20;;;;;;5015102;28;20038;-85
2022/07/25 09:02:55;;;;;;;5.22;4.72;;;32.20;50.70;;;;;;4987795;28;20455;-83
2022/07/25 09:05:22;;;;;;;6.88;5.32;;;32.20;50.30;;;;;;4971415;28;20060;-84
2022/07/25 09:07:48;;;;;;;7.15;4.95;;;32.20;50.70;;;;;;4977659;28;20033;-84
2022/07/25 09:10:24;;;;;;;5.82;5.30;;;32.20;50.70;;;;;;4999309;28;20045;-86
2022/07/25 09:12:54;;;;;;;11.27;5.43;;;32.40;50.90;;;;;;4992620;28;20027;-84
2022/07/25 09:15:28;;;;;;;5.75;5.22;;;32.10;50.60;;;;;;4996524;28;20082;-85
2022/07/25 09:17:54;;;;;;;6.00;4.90;;;32.30;51.00;;;;;;4974098;28;20510;-85
2022/07/25 09:20:23;;;;;;;5.38;4.85;;;32.20;50.30;;;;;;4989771;28;20314;-86
2022/07/25 09:22:49;;;;;;;8.48;5.72;;;32.40;50.50;;;;;;4989534;28;20041;-86
2022/07/25 09:25:26;;;;;;;6.10;5.15;;;32.40;50.60;;;;;;4979423;28;20502;-86
2022/07/25 09:27:51;;;;;;;6.70;6.03;;;32.50;50.30;;;;;;4981655;28;20029;-85
2022/07/25 09:30:17;;;;;;;5.80;5.18;;;32.80;50.20;;;;;;4969043;28;20049;-83
2022/07/25 09:32:43;;;;;;;7.00;4.53;;;32.90;49.60;;;;;;4984258;28;20033;-84
2022/07/25 09:35:08;;;;;;;4.60;4.18;;;33.10;50.10;;;;;;4977434;28;20390;-84
2022/07/25 09:37:34;;;;;;;7.90;5.13;;;33.30;49.10;;;;;;4992148;28;20049;-84
2022/07/25 09:39:59;;;;;;;8.30;5.05;;;33.40;49.70;;;;;;5002921;28;20068;-83
2022/07/25 09:42:26;;;;;;;6.28;5.28;;;33.40;48.40;;;;;;4993786;28;20030;-83
2022/07/25 09:45:04;;;;;;;6.70;5.53;;;33.30;49.00;;;;;;4976319;28;20037;-83
2022/07/25 09:47:30;;;;;;;6.07;5.10;;;33.60;48.80;;;;;;5011744;28;20021;-83
2022/07/25 09:49:56;;;;;;;5.45;5.05;;;33.80;47.50;;;;;;4990506;28;20525;-81
2022/07/25 09:52:21;;;;;;;5.07;4.57;;;33.80;47.20;;;;;;4970018;28;20034;-81
2022/07/25 09:54:47;;;;;;;7.57;5.18;;;33.60;47.30;;;;;;4978122;28;20048;-80
2022/07/25 09:57:13;;;;;;;7.32;5.50;;;34.00;47.60;;;;;;4980969;28;20026;-80
2022/07/25 09:59:39;;;;;;;5.97;4.28;;;34.60;47.70;;;;;;4993165;28;20500;-80
2022/07/25 10:02:24;;;;;;;5.95;5.35;;;34.40;47.00;;;;;;4994254;28;20686;-79
2022/07/25 10:05:06;;;;;;;7.97;5.10;;;34.90;47.70;;;;;;4982947;28;20521;-78
2022/07/25 10:07:32;;;;;;;8.52;4.93;;;35.00;46.70;;;;;;4981645;28;20030;-78
2022/07/25 10:09:58;;;;;;;5.50;3.65;;;35.20;45.90;;;;;;5008471;28;20429;-78
2022/07/25 10:12:23;;;;;;;4.55;4.15;;;35.20;46.70;;;;;;5000907;28;20034;-79
2022/07/25 10:15:12;;;;;;;7.22;5.50;;;35.40;46.20;;;;;;4991893;28;20398;-78
2022/07/25 10:17:38;;;;;;;5.70;5.20;;;35.80;46.30;;;;;;5011398;28;20515;-78
2022/07/25 10:20:06;;;;;;;5.88;5.03;;;35.80;45.30;;;;;;4997347;28;20153;-78
2022/07/25 10:22:45;;;;;;;7.38;6.47;;;35.60;45.60;;;;;;5012157;28;20033;-78
2022/07/25 10:25:18;;;;;;;8.38;6.18;;;35.40;46.30;;;;;;5001471;28;20566;-77
2022/07/25 10:27:48;;;;;;;6.82;5.47;;;35.20;46.70;;;;;;4977499;28;20030;-77
2022/07/25 10:30:22;;;;;;;6.20;5.70;;;34.90;46.40;;;;;;4998890;28;20294;-77
2022/07/25 10:33:02;;;;;;;7.95;5.45;;;34.50;48.30;;;;;;5005746;28;20030;-77
2022/07/25 10:35:28;;;;;;;10.80;5.60;;;34.40;48.10;;;;;;5011470;28;20034;-77
2022/07/25 10:37:55;;;;;;;6.45;5.03;;;34.30;47.70;;;;;;4991013;28;20486;-77
2022/07/25 10:40:34;;;;;;;6.30;5.70;;;34.10;47.90;;;;;;5009314;28;20040;-77
2022/07/25 10:43:18;;;;;;;7.00;5.22;;;34.00;48.20;;;;;;5003003;28;20124;-77
2022/07/25 10:45:47;;;;;;;7.72;5.85;;;33.70;48.30;;;;;;4953615;28;20038;-78
2022/07/25 10:48:29;;;;;;;6.47;5.10;;;33.80;48.50;;;;;;4992181;28;20072;-78
2022/07/25 10:51:02;;;;;;;6.40;5.18;;;33.80;48.20;;;;;;5015621;28;20045;-79
2022/07/25 10:53:45;;;;;;;5.97;5.28;;;33.80;48.40;;;;;;4965291;28;20041;-78
2022/07/25 10:56:18;;;;;;;7.30;5.60;;;33.50;48.60;;;;;;4964640;28;20391;-78
2022/07/25 10:58:56;;;;;;;5.20;4.70;;;33.50;48.60;;;;;;5007430;28;20554;-76
2022/07/25 11:01:27;;;;;;;4.82;4.43;;;33.70;48.50;;;;;;5027843;28;20446;-76
2022/07/25 11:03:54;;;;;;;5.30;4.78;;;33.90;48.10;;;;;;5008816;28;20034;-78
2022/07/25 11:06:35;;;;;;;5.93;5.13;;;34.20;48.80;;;;;;4990489;28;20511;-78
2022/07/25 11:09:02;;;;;;;6.68;4.45;;;34.70;48.30;;;;;;5026456;28;20026;-77
2022/07/25 11:11:39;;;;;;;5.60;4.05;;;34.90;47.40;;;;;;5010893;28;20034;-78
2022/07/25 11:14:12;;;;;;;4.95;4.22;;;34.80;46.20;;;;;;5008327;28;20038;-79
2022/07/25 11:16:38;;;;;;;6.25;3.17;;;34.80;46.50;;;;;;5030199;28;20037;-76
2022/07/25 11:19:19;;;;;;;6.55;4.25;;;35.00;45.50;;;;;;4993138;28;20433;-78
2022/07/25 11:21:53;;;;;;;4.20;3.75;;;35.10;45.50;;;;;;4988469;28;20022;-77
2022/07/25 11:24:19;;;;;;;8.70;3.97;;;35.00;45.10;;;;;;5009844;28;20037;-77
2022/07/25 11:26:48;;;;;;;4.90;3.63;;;34.70;45.40;;;;;;5009007;28;20473;-77
2022/07/25 11:29:33;;;;;;;6.57;3.90;;;34.90;45.50;;;;;;4974554;28;20044;-77
2022/07/25 11:32:01;;;;;;;6.25;3.75;;;35.40;45.40;;;;;;5010071;28;20048;-78
2022/07/25 11:34:29;;;;;;;8.32;4.40;;;35.50;45.40;;;;;;5010995;28;20030;-79
2022/07/25 11:36:56;;;;;;;6.10;3.63;;;35.40;44.70;;;;;;4993799;28;20517;-78
2022/07/25 11:39:30;;;;;;;4.10;3.60;;;35.80;44.10;;;;;;4979653;28;20040;-79
2022/07/25 11:42:06;;;;;;;3.92;3.63;;;36.00;43.40;;;;;;4988155;28;20053;-78
2022/07/25 11:44:33;;;;;;;4.13;3.70;;;36.10;44.10;;;;;;4989479;28;20473;-78
2022/07/25 11:46:58;;;;;;;6.50;3.75;;;36.30;44.10;;;;;;4992052;28;20054;-77
2022/07/25 11:49:24;;;;;;;7.60;3.83;;;36.40;43.70;;;;;;5010542;28;20084;-78
2022/07/25 11:51:49;;;;;;;4.90;3.72;;;36.70;43.50;;;;;;4981208;28;20045;-78
2022/07/25 11:54:15;;;;;;;5.47;3.25;;;36.80;42.90;;;;;;5004421;28;20042;-79
2022/07/25 11:56:42;;;;;;;5.05;2.83;;;36.80;42.60;;;;;;5007207;28;20056;-78
2022/07/25 11:59:08;;;;;;;3.85;3.00;;;36.80;43.10;;;;;;5008453;28;20503;-78
2022/07/25 12:01:35;;;;;;;2.95;2.65;;;36.70;42.30;;;;;;4990310;28;20034;-78
2022/07/25 12:04:27;;;;;;;3.72;3.20;;;36.80;42.90;;;;;;5010680;28;20026;-79
2022/07/25 12:07:01;;;;;;;4.25;3.20;;;37.00;42.20;;;;;;5028288;28;20034;-77
2022/07/25 12:09:27;;;;;;;4.60;2.47;;;37.20;42.40;;;;;;4994694;28;20081;-78
2022/07/25 12:12:01;;;;;;;2.90;2.67;;;37.50;42.00;;;;;;4991801;28;20517;-77
2022/07/25 12:14:26;;;;;;;3.63;2.55;;;37.60;41.90;;;;;;5008833;28;20038;-77
2022/07/25 12:16:52;;;;;;;5.43;3.20;;;37.60;41.60;;;;;;4978782;28;20034;-78
2022/07/25 12:19:19;;;;;;;5.75;2.80;;;37.80;41.80;;;;;;5016242;28;20030;-78
2022/07/25 12:21:45;;;;;;;5.97;3.25;;;38.00;41.30;;;;;;4994107;28;20030;-77
2022/07/25 12:24:10;;;;;;;2.75;2.30;;;38.10;41.50;;;;;;5028385;28;20045;-77
2022/07/25 12:26:36;;;;;;;6.30;3.15;;;38.20;41.80;;;;;;5026661;28;20120;-78
2022/07/25 12:29:01;;;;;;;3.20;2.95;;;37.80;42.40;;;;;;4994501;28;20171;-77
2022/07/25 12:31:27;;;;;;;2.92;2.17;;;38.20;41.70;;;;;;4992844;28;20044;-77
2022/07/25 12:33:53;;;;;;;5.85;2.95;;;38.30;41.00;;;;;;5014579;28;20423;-78
2022/07/25 12:36:19;;;;;;;4.30;2.92;;;38.10;41.10;;;;;;5028815;28;20569;-77
2022/07/25 12:38:45;;;;;;;7.03;3.10;;;38.20;41.20;;;;;;5016923;28;20267;-77
2022/07/25 12:41:10;;;;;;;2.97;2.78;;;38.30;41.00;;;;;;5024382;28;20057;-77
2022/07/25 12:43:36;;;;;;;7.43;3.15;;;38.30;41.50;;;;;;4982794;28;20408;-77
2022/07/25 12:46:02;;;;;;;4.47;2.45;;;38.30;41.50;;;;;;5018135;28;20026;-78